KDBQ METAR and TAF | Updated Today

KDBQ METAR

Dubuque Regional Airport

Observation time: 33 min. ago

KDBQ 261353Z 30015G20KT 10SM CLR 20/11 A3014 RMK AO2 SLP201 T02000111

Need help? Read our tutorial on how to read METARs or read the parsed version below.

Dubuque Regional Airport (KDBQ) METAR

  • Weather conditions on Sun, 26 Jun 2022 13:53:00 +0000 (33 min. ago):
  • Present conditions: Dry
  • Clouds: Clear skies
  • Visibility: 16093 meters
  • Wind: 300 degrees at 15 knots
  • Temperature: 20 celsius
  • Dew point: 11 celsius
  • Pressure: 30.14 inHg
  • Remarks: AO2 SLP201 T02000111


Useful to know...

KDBQ TAF

Dubuque Regional Airport

KDBQ 261132Z 2612/2712 33008KT P6SM SKC FM261500 32012G20KT P6SM SKC FM270300 30005KT P6SM SKC
Observation time: 2:54 hr. ago
Need help? Read our tutorial on how to read TAFs or read the parsed version below.

Parsed version of TAF for Dubuque Regional Airport (KDBQ)

  • From 26 June at 12:00 UTC, to day 27 of the month at 12:00 UTC
  • Clouds: No significant changes expected
  • Wind: 330 degrees at 8
  • From day 26 of the month at 15:00 UTC
  • Clouds: No significant changes expected
  • Wind: 320 degrees at 12
  • From day 27 of the month at 03:00 UTC
  • Clouds: No significant changes expected
  • Wind: 300 degrees at 5

Airports near KDBQ

KCWI Weather
Region: Clinton

Clinton Municipal Airport

Not found in our database
KPDC Weather
Region: Prairie Du Chien

Prairie Du Chien Municipal Airport

Not found in our database